KLGB/LGB METAR and TAF weather

Enter ICAO airport designator
Station Type Date Time Source
KLGB METAR 2019/11/21 02:53 UTC NOAA

KLGB 210253Z 00000KT 10SM SCT090 SCT120 12/07 A2967 RMK AO2 SLP045 T01220072 53018


Station Type Date Time Source
KLGB Decoded METAR 2019/11/21 02:53 UTC NOAA

LONG BEACH AIRPORT, CA, United States (KLGB) 33-49N 118-09W 10M
Nov 20, 2019 - 09:53 PM EST / 2019.11.21 0253 UTC
Wind: Calm:0
Visibility: 10 mile(s):0
Sky conditions: partly cloudy
Temperature: 54.0 F (12.2 C)
Dew Point: 45.0 F (7.2 C)
Relative Humidity: 71%
Pressure (altimeter): 29.67 in. Hg (1004 hPa)
Pressure tendency: 0.05 inches (1.8 hPa) higher than three hours ago
ob: KLGB 210253Z 00000KT 10SM SCT090 SCT120 12/07 A2967 RMK AO2 SLP045 T01220072 53018
cycle: 3

Station Type Date Time Source
KLGB TAF 2019/11/20 22:15 UTC NOAA

TAF
AMD KLGB 202213Z 2022/2118 02009KT 2SM -RA BR VCTS SCT035CB BKN045 OVC060
FM210000 03006KT P6SM -SHRA BKN035 OVC050
FM210300 VRB03KT P6SM VCSH BKN050 BKN150
FM210800 05006KT P6SM SCT080 BKN150
FM211500 VRB03KT P6SM SCT200

Example: see airport list